createdAt,value
2022-08-18T00:01:19.816Z,4.07
2022-08-18T00:03:55.598Z,4.55
2022-08-18T00:06:28.467Z,5.03
2022-08-18T00:08:55.301Z,4.43
2022-08-18T00:11:21.899Z,4.25
2022-08-18T00:13:48.293Z,4.70
2022-08-18T00:16:14.667Z,4.10
2022-08-18T00:18:41.031Z,4.43
2022-08-18T00:21:07.640Z,4.78
2022-08-18T00:23:33.993Z,4.80
2022-08-18T00:26:00.471Z,5.00
2022-08-18T00:28:26.996Z,4.90
2022-08-18T00:30:53.959Z,4.90
2022-08-18T00:33:21.232Z,4.63
2022-08-18T00:35:47.778Z,4.75
2022-08-18T00:38:24.196Z,5.32
2022-08-18T00:40:53.223Z,5.07
2022-08-18T00:43:21.526Z,4.80
2022-08-18T00:45:47.930Z,4.95
2022-08-18T00:48:15.082Z,5.15
2022-08-18T00:50:42.307Z,5.10
2022-08-18T00:53:18.534Z,5.20
2022-08-18T00:55:53.981Z,4.88
2022-08-18T00:58:24.719Z,5.05
2022-08-18T01:00:51.370Z,4.72
2022-08-18T01:03:24.468Z,5.20
2022-08-18T01:06:03.441Z,4.85
2022-08-18T01:08:30.101Z,4.75
2022-08-18T01:10:57.513Z,5.20
2022-08-18T01:13:31.657Z,5.68
2022-08-18T01:15:58.250Z,4.78
2022-08-18T01:18:43.675Z,5.13
2022-08-18T01:21:31.774Z,5.15
2022-08-18T01:23:58.721Z,5.65
2022-08-18T01:26:26.755Z,5.63
2022-08-18T01:28:54.027Z,5.80
2022-08-18T01:31:30.976Z,5.78
2022-08-18T01:33:57.499Z,5.70
2022-08-18T01:36:23.938Z,5.43
2022-08-18T01:38:51.555Z,5.55
2022-08-18T01:41:28.674Z,5.45
2022-08-18T01:43:58.614Z,5.40
2022-08-18T01:46:25.571Z,5.85
2022-08-18T01:48:52.154Z,5.60
2022-08-18T01:51:19.795Z,5.78
2022-08-18T01:53:46.769Z,5.60
2022-08-18T01:56:14.513Z,5.63
2022-08-18T01:58:40.948Z,5.80
2022-08-18T02:01:07.356Z,5.63
2022-08-18T02:03:37.836Z,6.43
2022-08-18T02:06:05.717Z,5.70
2022-08-18T02:08:32.266Z,5.88
2022-08-18T02:10:59.990Z,11.40
2022-08-18T02:13:26.509Z,6.25
2022-08-18T02:15:53.004Z,5.65
2022-08-18T02:18:25.680Z,6.22
2022-08-18T02:21:14.832Z,5.55
2022-08-18T02:23:53.169Z,5.97
2022-08-18T02:26:20.430Z,5.40
2022-08-18T02:28:46.943Z,6.40
2022-08-18T02:31:19.114Z,6.18
2022-08-18T02:33:46.977Z,6.13
2022-08-18T02:36:19.239Z,6.60
2022-08-18T02:38:45.685Z,6.25
2022-08-18T02:43:49.623Z,6.30
2022-08-18T02:46:16.051Z,6.40
2022-08-18T02:48:42.644Z,5.85
2022-08-18T02:51:12.240Z,6.15
2022-08-18T02:53:42.553Z,6.30
2022-08-18T02:56:41.639Z,6.30
2022-08-18T02:59:10.817Z,5.80
2022-08-18T03:01:38.471Z,5.45
2022-08-18T03:04:06.570Z,6.38
2022-08-18T03:06:35.390Z,6.20
2022-08-18T03:09:01.806Z,5.72
2022-08-18T03:11:29.484Z,6.38
2022-08-18T03:13:56.503Z,6.22
2022-08-18T03:16:24.542Z,6.05
2022-08-18T03:18:52.101Z,5.93
2022-08-18T03:21:21.747Z,6.07
2022-08-18T03:24:00.736Z,5.70
2022-08-18T03:26:28.696Z,5.30
2022-08-18T03:28:55.329Z,6.53
2022-08-18T03:31:23.143Z,6.18
2022-08-18T03:33:54.125Z,6.70
2022-08-18T03:36:22.236Z,6.93
2022-08-18T03:38:50.913Z,6.63
2022-08-18T03:41:56.992Z,6.13
2022-08-18T03:44:10.005Z,6.10
2022-08-18T03:46:36.377Z,6.40
2022-08-18T03:49:03.308Z,7.00
2022-08-18T03:51:32.090Z,7.20
2022-08-18T03:54:00.368Z,6.60
2022-08-18T03:56:28.220Z,6.90
2022-08-18T03:58:56.194Z,6.82
2022-08-18T04:01:26.512Z,6.82
2022-08-18T04:03:56.669Z,6.95
2022-08-18T04:06:29.856Z,7.05
2022-08-18T04:08:58.555Z,6.95
2022-08-18T04:11:25.217Z,6.70
2022-08-18T04:13:51.666Z,6.80
2022-08-18T04:16:20.564Z,7.05
2022-08-18T04:18:46.887Z,7.20
2022-08-18T04:21:13.738Z,6.95
2022-08-18T04:23:44.230Z,6.88
2022-08-18T04:26:19.197Z,7.45
2022-08-18T04:28:47.335Z,6.72
2022-08-18T04:31:14.904Z,6.57
2022-08-18T04:33:42.114Z,7.07
2022-08-18T04:36:12.782Z,6.85
2022-08-18T04:38:45.290Z,6.57
2022-08-18T04:41:13.043Z,6.50
2022-08-18T04:43:40.058Z,7.57
2022-08-18T04:46:07.036Z,6.85
2022-08-18T04:48:34.874Z,6.88
2022-08-18T04:51:12.532Z,6.60
2022-08-18T04:54:00.868Z,6.78
2022-08-18T04:56:27.199Z,6.43
2022-08-18T04:58:54.350Z,6.43
2022-08-18T05:01:21.970Z,6.30
2022-08-18T05:03:50.572Z,6.30
2022-08-18T05:06:17.660Z,6.15
2022-08-18T05:08:49.559Z,6.25
2022-08-18T05:11:16.032Z,5.70
2022-08-18T05:13:44.548Z,6.63
2022-08-18T05:16:16.680Z,6.68
2022-08-18T05:18:45.956Z,5.68
2022-08-18T05:21:13.942Z,5.55
2022-08-18T05:23:42.328Z,5.70
2022-08-18T05:26:09.199Z,5.53
2022-08-18T05:28:37.666Z,5.78
2022-08-18T05:31:13.528Z,5.70
2022-08-18T05:33:40.596Z,5.65
2022-08-18T05:36:19.843Z,5.65
2022-08-18T05:39:12.385Z,5.47
2022-08-18T05:41:41.562Z,5.47
2022-08-18T05:44:09.460Z,4.93
2022-08-18T05:46:55.709Z,5.75
2022-08-18T05:49:24.446Z,5.00
2022-08-18T05:51:53.451Z,5.07
2022-08-18T05:54:39.347Z,4.60
2022-08-18T05:57:09.812Z,4.78
2022-08-18T05:59:38.642Z,4.72
2022-08-18T06:02:05.466Z,5.00
2022-08-18T06:04:35.015Z,4.78
2022-08-18T06:07:05.568Z,4.78
2022-08-18T06:09:34.979Z,4.20
2022-08-18T06:12:08.876Z,4.28
2022-08-18T06:14:36.672Z,4.50
2022-08-18T06:17:09.378Z,4.22
2022-08-18T06:19:44.847Z,4.43
2022-08-18T06:22:31.492Z,4.22
2022-08-18T06:24:57.878Z,4.50
2022-08-18T06:27:35.941Z,4.40
2022-08-18T06:30:11.251Z,3.95
2022-08-18T06:32:56.849Z,4.30
2022-08-18T06:35:29.352Z,4.03
2022-08-18T06:38:23.842Z,3.90
2022-08-18T06:40:51.496Z,3.80
2022-08-18T06:43:18.114Z,4.60
2022-08-18T06:45:48.473Z,4.57
2022-08-18T06:48:24.287Z,4.10
2022-08-18T06:50:57.137Z,4.18
2022-08-18T06:53:43.436Z,4.70
2022-08-18T06:56:26.431Z,4.63
2022-08-18T06:58:55.267Z,4.70
2022-08-18T07:01:23.796Z,4.43
2022-08-18T07:03:54.792Z,5.13
2022-08-18T07:06:21.415Z,5.10
2022-08-18T07:08:52.880Z,4.65
2022-08-18T07:11:30.824Z,4.55
2022-08-18T07:14:15.397Z,4.70
2022-08-18T07:16:59.780Z,4.82
2022-08-18T07:19:28.769Z,4.40
2022-08-18T07:22:03.614Z,4.65
2022-08-18T07:24:34.848Z,5.03
2022-08-18T07:27:09.901Z,5.45
2022-08-18T07:29:55.044Z,5.05
2022-08-18T07:32:21.922Z,5.63
2022-08-18T07:34:55.036Z,6.10
2022-08-18T07:37:28.643Z,5.47
2022-08-18T07:39:59.759Z,6.20
2022-08-18T07:42:56.855Z,5.38
2022-08-18T07:45:31.264Z,5.85
2022-08-18T07:48:34.861Z,5.95
2022-08-18T07:51:13.354Z,5.88
2022-08-18T07:53:55.482Z,5.65
2022-08-18T07:56:28.834Z,5.43
2022-08-18T07:59:07.464Z,5.32
2022-08-18T08:01:33.973Z,6.30
2022-08-18T08:04:03.383Z,6.68
2022-08-18T08:07:06.481Z,6.15
2022-08-18T08:09:55.137Z,6.68
2022-08-18T08:12:40.004Z,6.32
2022-08-18T08:15:27.680Z,6.57
2022-08-18T08:18:00.041Z,5.97
2022-08-18T08:20:33.141Z,6.30
2022-08-18T08:22:59.591Z,6.20
2022-08-18T08:25:47.567Z,6.35
2022-08-18T08:28:14.283Z,6.72
2022-08-18T08:31:19.143Z,6.45
2022-08-18T08:33:52.126Z,6.18
2022-08-18T08:36:31.580Z,6.03
2022-08-18T08:39:00.872Z,6.32
2022-08-18T08:41:33.393Z,6.35
2022-08-18T08:44:08.260Z,6.40
2022-08-18T08:46:41.064Z,6.47
2022-08-18T08:49:09.641Z,7.53
2022-08-18T08:51:44.477Z,7.50
2022-08-18T08:54:26.022Z,7.17
2022-08-18T08:56:54.186Z,7.13
2022-08-18T08:59:22.372Z,6.90
2022-08-18T09:02:27.118Z,7.03
2022-08-18T09:05:09.419Z,7.40
2022-08-18T09:07:42.234Z,7.38
2022-08-18T09:10:11.613Z,7.20
2022-08-18T09:12:58.677Z,6.65
2022-08-18T09:15:44.026Z,6.72
2022-08-18T09:18:13.538Z,6.55
2022-08-18T09:20:58.753Z,6.78
2022-08-18T09:23:33.747Z,6.47
2022-08-18T09:26:20.035Z,6.80
2022-08-18T09:29:00.775Z,6.40
2022-08-18T09:31:32.346Z,5.88
2022-08-18T09:34:10.991Z,5.70
2022-08-18T09:36:37.522Z,5.68
2022-08-18T09:39:27.100Z,6.07
2022-08-18T09:41:53.567Z,5.85
2022-08-18T09:44:39.156Z,6.47
2022-08-18T09:47:10.462Z,6.28
2022-08-18T09:49:47.806Z,6.18
2022-08-18T09:55:16.174Z,6.90
2022-08-18T09:57:44.695Z,6.55
2022-08-18T10:00:12.940Z,5.78
2022-08-18T10:02:40.311Z,6.47
2022-08-18T10:05:15.986Z,6.22
2022-08-18T10:07:45.360Z,6.60
2022-08-18T10:10:59.235Z,6.55
2022-08-18T10:13:03.820Z,6.65
2022-08-18T10:15:33.925Z,6.10
2022-08-18T10:18:18.757Z,6.38
2022-08-18T10:20:45.103Z,7.40
2022-08-18T10:23:11.585Z,7.53
2022-08-18T10:25:39.699Z,6.97
2022-08-18T10:28:10.109Z,8.15
2022-08-18T10:30:56.581Z,7.63
2022-08-18T10:33:43.921Z,7.50
2022-08-18T10:36:11.029Z,8.60
2022-08-18T10:38:40.475Z,8.68
2022-08-18T10:41:26.133Z,9.27
2022-08-18T10:43:56.014Z,8.60
2022-08-18T10:46:29.427Z,10.05
2022-08-18T10:49:04.603Z,10.57
2022-08-18T10:51:30.986Z,9.70
2022-08-18T10:54:24.243Z,9.20
2022-08-18T10:56:54.569Z,10.07
2022-08-18T10:59:31.853Z,11.45
2022-08-18T11:02:14.576Z,12.60
2022-08-18T11:04:58.557Z,12.50
2022-08-18T11:07:30.839Z,13.88
2022-08-18T11:13:10.548Z,14.32
2022-08-18T11:15:38.560Z,14.23
2022-08-18T11:18:28.862Z,14.75
2022-08-18T11:21:15.220Z,14.40
2022-08-18T11:23:42.779Z,14.57
2022-08-18T11:26:13.941Z,15.27
2022-08-18T11:28:45.066Z,15.25
2022-08-18T11:31:13.576Z,15.18
2022-08-18T11:33:40.953Z,15.25
2022-08-18T11:36:07.450Z,15.02
2022-08-18T11:38:36.505Z,14.77
2022-08-18T11:41:17.294Z,14.07
2022-08-18T11:43:46.809Z,13.90
2022-08-18T11:46:31.983Z,13.52
2022-08-18T11:52:02.392Z,13.52
2022-08-18T11:54:35.784Z,13.23
2022-08-18T11:57:21.195Z,13.40
2022-08-18T11:59:54.869Z,11.85
2022-08-18T12:02:26.680Z,12.05
2022-08-18T12:04:56.931Z,13.63
2022-08-18T12:07:28.438Z,12.40
2022-08-18T12:10:16.950Z,12.55
2022-08-18T12:12:47.369Z,14.32
2022-08-18T12:15:23.933Z,13.60
2022-08-18T12:20:37.973Z,13.38
2022-08-18T12:23:05.473Z,13.90
2022-08-18T12:25:32.304Z,14.48
2022-08-18T12:27:58.681Z,15.98
2022-08-18T12:30:25.037Z,14.48
2022-08-18T12:35:41.911Z,14.43
2022-08-18T12:38:12.972Z,15.85
2022-08-18T12:40:40.899Z,15.35
2022-08-18T12:43:07.466Z,15.60
2022-08-18T12:45:34.154Z,15.00
2022-08-18T12:48:04.412Z,15.38
2022-08-18T12:50:54.288Z,13.60
2022-08-18T12:53:29.441Z,13.50
2022-08-18T12:56:05.145Z,14.18
2022-08-18T12:58:31.602Z,13.23
2022-08-18T13:01:03.725Z,13.00
2022-08-18T13:03:30.336Z,14.40
2022-08-18T13:06:02.349Z,13.70
2022-08-18T13:08:30.559Z,13.50
2022-08-18T13:11:00.422Z,14.27
2022-08-18T13:13:42.701Z,13.32
2022-08-18T13:16:09.389Z,12.27
2022-08-18T13:18:42.998Z,11.77
2022-08-18T13:21:12.523Z,11.27
2022-08-18T13:23:40.923Z,11.88
2022-08-18T13:26:09.622Z,10.52
2022-08-18T13:28:57.185Z,11.32
2022-08-18T13:31:23.250Z,12.07
2022-08-18T13:33:56.541Z,12.57
2022-08-18T13:36:28.986Z,13.05
2022-08-18T13:38:55.544Z,12.95
2022-08-18T13:41:23.399Z,12.93
2022-08-18T13:43:51.060Z,12.55
2022-08-18T13:46:19.765Z,11.55
2022-08-18T13:48:59.898Z,12.43
2022-08-18T13:51:28.276Z,12.95
2022-08-18T13:54:17.927Z,13.82
2022-08-18T13:56:41.885Z,13.82
2022-08-18T13:59:17.873Z,13.48
2022-08-18T14:01:52.142Z,13.75
2022-08-18T14:04:20.499Z,14.90
2022-08-18T14:06:56.343Z,13.18
2022-08-18T14:09:36.024Z,14.00
2022-08-18T14:12:15.797Z,14.18
2022-08-18T14:14:49.897Z,15.17
2022-08-18T14:17:18.705Z,14.23
2022-08-18T14:20:04.664Z,15.07
2022-08-18T14:22:49.545Z,14.70
2022-08-18T14:25:34.851Z,12.70
2022-08-18T14:28:03.885Z,13.77
2022-08-18T14:30:31.443Z,13.50
2022-08-18T14:32:59.048Z,12.77
2022-08-18T14:35:33.119Z,12.00
2022-08-18T14:38:12.081Z,12.93
2022-08-18T14:40:41.727Z,12.57
2022-08-18T14:43:10.228Z,12.65
2022-08-18T14:45:39.221Z,13.35
2022-08-18T14:48:07.296Z,12.18
2022-08-18T14:50:37.542Z,12.77
2022-08-18T14:53:07.838Z,13.73
2022-08-18T14:55:34.316Z,13.43
2022-08-18T14:58:00.827Z,11.25
2022-08-18T15:00:28.055Z,12.60
2022-08-18T15:02:54.553Z,11.80
2022-08-18T15:05:24.512Z,11.93
2022-08-18T15:07:51.246Z,12.90
2022-08-18T15:10:19.682Z,12.45
2022-08-18T15:12:49.577Z,12.75
2022-08-18T15:15:17.994Z,12.73
2022-08-18T15:17:44.773Z,13.43
2022-08-18T15:20:19.122Z,13.23
2022-08-18T15:23:04.892Z,13.30
2022-08-18T15:25:44.657Z,12.15
2022-08-18T15:28:16.409Z,14.45
2022-08-18T15:30:46.847Z,13.50
2022-08-18T15:33:18.385Z,13.23
2022-08-18T15:35:50.566Z,13.65
2022-08-18T15:38:18.600Z,12.50
2022-08-18T15:40:49.672Z,12.38
2022-08-18T15:43:25.365Z,12.32
2022-08-18T15:45:57.875Z,12.38
2022-08-18T15:48:25.820Z,11.70
2022-08-18T15:50:52.356Z,12.80
2022-08-18T15:53:22.165Z,13.13
2022-08-18T15:55:50.269Z,13.40
2022-08-18T15:58:22.409Z,12.57
2022-08-18T16:00:53.674Z,12.57
2022-08-18T16:03:21.214Z,10.40
2022-08-18T16:05:48.079Z,12.07
2022-08-18T16:08:18.118Z,12.90
2022-08-18T16:10:44.963Z,11.30
2022-08-18T16:13:11.395Z,11.73
2022-08-18T16:15:39.565Z,12.25
2022-08-18T16:18:07.493Z,11.52
2022-08-18T16:20:34.246Z,12.07
2022-08-18T16:23:01.062Z,12.18
2022-08-18T16:25:27.574Z,12.65
2022-08-18T16:27:54.915Z,11.50
2022-08-18T16:30:24.595Z,11.35
2022-08-18T16:32:51.008Z,11.25
2022-08-18T16:35:18.653Z,11.40
2022-08-18T16:37:46.699Z,11.25
2022-08-18T16:40:14.659Z,10.85
2022-08-18T16:42:41.475Z,11.45
2022-08-18T16:45:08.903Z,10.95
2022-08-18T16:47:40.230Z,10.32
2022-08-18T16:50:07.794Z,10.73
2022-08-18T16:52:35.306Z,10.85
2022-08-18T16:55:02.332Z,10.15
2022-08-18T16:57:54.056Z,10.13
2022-08-18T17:00:40.482Z,10.60
2022-08-18T17:03:25.783Z,10.23
2022-08-18T17:06:01.143Z,10.52
2022-08-18T17:08:27.973Z,10.95
2022-08-18T17:10:55.041Z,10.38
2022-08-18T17:13:21.438Z,11.07
2022-08-18T17:15:50.679Z,10.52
2022-08-18T17:18:17.093Z,11.25
2022-08-18T17:20:46.149Z,11.18
2022-08-18T17:23:13.023Z,10.70
2022-08-18T17:25:39.988Z,10.95
2022-08-18T17:28:10.008Z,11.27
2022-08-18T17:30:41.760Z,10.45
2022-08-18T17:33:14.684Z,11.80
2022-08-18T17:35:42.721Z,11.15
2022-08-18T17:38:09.114Z,12.10
2022-08-18T17:40:35.435Z,11.18
2022-08-18T17:43:01.846Z,10.50
2022-08-18T17:45:29.672Z,11.70
2022-08-18T17:48:14.324Z,12.45
2022-08-18T17:51:03.232Z,11.27
2022-08-18T17:53:31.373Z,11.77
2022-08-18T17:56:09.984Z,12.43
2022-08-18T17:58:40.591Z,14.00
2022-08-18T18:01:07.925Z,14.73
2022-08-18T18:03:34.651Z,15.77
2022-08-18T18:06:10.268Z,15.23
2022-08-18T18:13:32.802Z,16.40
2022-08-18T18:16:01.148Z,17.85
2022-08-18T18:18:41.897Z,17.33
2022-08-18T18:21:14.133Z,17.13
2022-08-18T18:23:46.283Z,18.58
2022-08-18T18:26:26.142Z,18.98
2022-08-18T18:29:12.882Z,17.95
2022-08-18T18:31:40.059Z,19.15
2022-08-18T18:34:23.271Z,18.35
2022-08-18T18:36:54.455Z,19.08
2022-08-18T18:39:33.298Z,19.00
2022-08-18T18:42:18.084Z,19.15
2022-08-18T18:44:55.681Z,18.55
2022-08-18T18:47:42.477Z,19.92
2022-08-18T18:50:21.116Z,22.98
2022-08-18T18:52:55.988Z,25.45
2022-08-18T18:55:24.184Z,28.67
2022-08-18T18:58:09.314Z,29.55
2022-08-18T19:00:41.787Z,29.75
2022-08-18T19:03:10.602Z,31.20
2022-08-18T19:05:45.495Z,30.30
2022-08-18T19:08:33.307Z,31.30
2022-08-18T19:11:03.574Z,34.65
2022-08-18T19:13:35.984Z,34.13
2022-08-18T19:16:11.814Z,35.10
2022-08-18T19:18:59.753Z,32.42
2022-08-18T19:22:02.456Z,33.78
2022-08-18T19:24:26.702Z,33.67
2022-08-18T19:26:55.018Z,34.28
2022-08-18T19:29:23.820Z,32.15
2022-08-18T19:31:57.889Z,32.70
2022-08-18T19:34:31.222Z,31.15
2022-08-18T19:37:18.343Z,32.22
2022-08-18T19:40:12.970Z,30.50
2022-08-18T19:42:42.130Z,30.83
2022-08-18T19:45:19.326Z,29.58
2022-08-18T19:47:50.725Z,31.40
2022-08-18T19:50:35.749Z,32.10
2022-08-18T19:53:14.513Z,32.28
2022-08-18T19:55:50.003Z,32.20
2022-08-18T19:58:25.653Z,34.67
2022-08-18T20:05:44.880Z,36.65
2022-08-18T20:08:30.068Z,38.00
2022-08-18T20:10:59.439Z,37.88
2022-08-18T20:13:25.747Z,40.03
2022-08-18T20:16:15.415Z,39.40
2022-08-18T20:18:44.747Z,39.97
2022-08-18T20:21:14.189Z,40.08
2022-08-18T20:23:55.841Z,40.20
2022-08-18T20:26:34.630Z,43.33
2022-08-18T20:29:01.428Z,45.42
2022-08-18T20:31:44.474Z,44.30
2022-08-18T20:34:14.385Z,42.80
2022-08-18T20:36:42.574Z,42.90
2022-08-18T20:39:28.708Z,43.45
2022-08-18T20:47:02.547Z,40.67
2022-08-18T20:49:38.185Z,41.55
2022-08-18T20:54:32.949Z,39.55
2022-08-18T20:57:01.908Z,41.45
2022-08-18T20:59:33.059Z,39.75
2022-08-18T21:02:08.192Z,40.53
2022-08-18T21:04:44.371Z,41.53
2022-08-18T21:07:17.751Z,40.75
2022-08-18T21:09:49.819Z,41.90
2022-08-18T21:12:21.957Z,42.22
2022-08-18T21:14:51.468Z,43.30
2022-08-18T21:17:20.525Z,40.95
2022-08-18T21:19:47.207Z,42.47
2022-08-18T21:22:16.218Z,43.08
2022-08-18T21:24:44.337Z,41.13
2022-08-18T21:27:19.465Z,42.13
2022-08-18T21:29:49.425Z,41.85
2022-08-18T21:32:21.812Z,41.15
2022-08-18T21:34:49.580Z,40.75
2022-08-18T21:37:17.977Z,39.53
2022-08-18T21:39:52.829Z,38.97
2022-08-18T21:42:45.609Z,38.23
2022-08-18T21:45:20.479Z,36.33
2022-08-18T21:47:54.488Z,37.20
2022-08-18T21:50:23.293Z,37.42
2022-08-18T21:53:01.165Z,37.28
2022-08-18T21:55:33.173Z,37.50
2022-08-18T21:58:05.715Z,35.70
2022-08-18T22:00:36.606Z,34.58
2022-08-18T22:03:12.027Z,34.70
2022-08-18T22:05:58.683Z,35.15
2022-08-18T22:08:29.513Z,34.10
2022-08-18T22:11:59.572Z,35.10
2022-08-18T22:14:27.005Z,33.08
2022-08-18T22:17:13.430Z,33.10
2022-08-18T22:19:39.786Z,34.72
2022-08-18T22:22:24.952Z,34.22
2022-08-18T22:24:53.970Z,33.47
2022-08-18T22:27:22.405Z,34.92
2022-08-18T22:29:53.334Z,33.95
2022-08-18T22:32:21.545Z,33.95
2022-08-18T22:34:50.364Z,34.38
2022-08-18T22:37:19.277Z,36.60
2022-08-18T22:39:46.282Z,37.40
2022-08-18T22:42:14.382Z,41.63
2022-08-18T22:44:44.216Z,41.67
2022-08-18T22:47:10.716Z,41.80
2022-08-18T22:49:37.775Z,42.75
2022-08-18T22:52:08.735Z,43.17
2022-08-18T22:54:35.167Z,44.25
2022-08-18T22:57:02.509Z,46.58
2022-08-18T22:59:28.957Z,45.67
2022-08-18T23:01:59.790Z,46.50
2022-08-18T23:04:26.923Z,46.83
2022-08-18T23:06:54.173Z,46.65
2022-08-18T23:09:28.359Z,45.13
2022-08-18T23:11:57.703Z,46.33
2022-08-18T23:14:26.469Z,45.35
2022-08-18T23:16:53.010Z,47.58
2022-08-18T23:19:20.205Z,49.35
2022-08-18T23:21:48.375Z,49.92
2022-08-18T23:24:15.510Z,46.55
2022-08-18T23:26:42.426Z,47.50
2022-08-18T23:29:11.438Z,47.47
2022-08-18T23:31:38.775Z,45.97
2022-08-18T23:34:05.221Z,47.83
2022-08-18T23:36:32.858Z,48.15
2022-08-18T23:38:59.685Z,47.60
2022-08-18T23:41:26.618Z,47.95
2022-08-18T23:43:53.419Z,48.95
2022-08-18T23:46:24.514Z,50.63
2022-08-18T23:48:52.190Z,51.28
2022-08-18T23:51:35.258Z,50.60
2022-08-18T23:54:03.726Z,48.72
2022-08-18T23:56:30.917Z,48.13
2022-08-18T23:58:57.561Z,46.85
